Time;durP1;ratioP1;P1;durP2;ratioP2;P2;SDS_P1;SDS_P2;PMS_P1;PMS_P2;Temp;Humidity;BMP_temperature;BMP_pressure;BME280_temperature;BME280_humidity;BME280_pressure;Samples;Min_cycle;Max_cycle;Signal;HPM_P1;HPM_P2
2021/01/18 00:00:56;;;;;;;33.43;14.33;;;;;;;-4.02;62.89;99286.63;4878605;29;20032;-75
2021/01/18 00:03:22;;;;;;;26.60;12.27;;;;;;;-4.04;62.98;99295.59;4878897;29;20059;-76
2021/01/18 00:05:47;;;;;;;25.70;12.13;;;;;;;-4.10;63.24;99302.38;4878946;29;20518;-77
2021/01/18 00:08:12;;;;;;;29.50;13.30;;;;;;;-4.13;63.20;99305.31;4882685;29;20036;-75
2021/01/18 00:10:38;;;;;;;29.67;12.30;;;;;;;-4.19;63.22;99306.00;4901494;29;20036;-77
2021/01/18 00:13:03;;;;;;;28.43;12.83;;;;;;;-4.25;63.07;99311.91;4897469;29;20131;-78
2021/01/18 00:15:29;;;;;;;27.63;11.70;;;;;;;-4.27;62.98;99311.28;4897718;29;20130;-78
2021/01/18 00:17:54;;;;;;;27.97;12.40;;;;;;;-4.31;63.18;99315.22;4897802;29;20111;-78
2021/01/18 00:20:21;;;;;;;21.37;10.97;;;;;;;-4.34;63.11;99308.56;4880559;29;20079;-77
2021/01/18 00:22:47;;;;;;;25.73;11.53;;;;;;;-4.35;63.31;99318.16;4895646;29;20032;-77
2021/01/18 00:25:21;;;;;;;28.03;13.17;;;;;;;-4.38;62.90;99308.09;4887564;29;20109;-78
2021/01/18 00:27:46;;;;;;;28.27;11.83;;;;;;;-4.41;62.84;99320.66;4897633;29;20123;-78
2021/01/18 00:30:18;;;;;;;24.03;11.97;;;;;;;-4.42;62.83;99308.59;4897150;29;20119;-77
2021/01/18 00:32:44;;;;;;;28.97;13.40;;;;;;;-4.48;63.48;99320.53;4914554;29;20036;-78
2021/01/18 00:35:12;;;;;;;31.57;13.60;;;;;;;-4.53;63.26;99317.63;4895688;29;20083;-74
2021/01/18 00:37:45;;;;;;;31.05;13.48;;;;;;;-4.55;63.33;99320.41;4899587;29;20068;-78
2021/01/18 00:40:16;;;;;;;31.50;14.93;;;;;;;-4.59;63.41;99316.53;4880879;29;20510;-78
2021/01/18 00:42:43;;;;;;;32.43;14.43;;;;;;;-4.57;63.42;99324.19;4878987;29;20112;-78
2021/01/18 00:45:12;;;;;;;33.43;13.73;;;;;;;-4.61;63.95;99323.69;4880814;29;20490;-79
2021/01/18 00:47:49;;;;;;;31.10;13.65;;;;;;;-4.62;63.86;99322.06;4882566;29;20103;-77
2021/01/18 00:50:19;;;;;;;27.73;10.47;;;;;;;-4.67;63.99;99319.97;4900812;29;20402;-78
2021/01/18 00:52:51;;;;;;;18.90;10.50;;;;;;;-4.69;64.23;99335.00;4903263;29;20032;-81
2021/01/18 00:55:18;;;;;;;27.90;11.90;;;;;;;-4.70;63.97;99337.75;4895699;29;20095;-79
2021/01/18 00:57:45;;;;;;;25.27;10.67;;;;;;;-4.70;64.15;99340.38;4881828;29;20024;-79
2021/01/18 01:00:22;;;;;;;26.77;10.43;;;;;;;-4.72;64.33;99344.97;4881760;29;20532;-79
2021/01/18 01:02:49;;;;;;;28.03;10.53;;;;;;;-4.72;63.93;99350.19;4877440;29;20041;-79
2021/01/18 01:05:17;;;;;;;20.47;10.13;;;;;;;-4.75;63.83;99348.69;4881642;29;20032;-78
2021/01/18 01:13:35;;;;;;;15.57;8.07;;;;;;;-4.81;64.13;99344.16;5491612;23;20072;-79
2021/01/18 01:16:01;;;;;;;19.47;8.97;;;;;;;-4.80;63.99;99345.00;4881428;29;20044;-79
2021/01/18 01:18:26;;;;;;;18.77;8.33;;;;;;;-4.81;63.77;99344.16;4881523;29;20506;-78
2021/01/18 01:21:16;;;;;;;15.37;8.30;;;;;;;-4.82;63.77;99345.97;4881232;29;20088;-80
2021/01/18 01:27:29;;;;;;;13.60;6.33;;;;;;;-4.88;63.67;99341.41;4905142;29;20052;-81
2021/01/18 01:30:23;;;;;;;16.33;6.80;;;;;;;-4.89;63.29;99342.41;4882165;29;20037;-81
2021/01/18 01:32:52;;;;;;;16.23;6.97;;;;;;;-4.91;63.86;99349.56;4880332;29;20529;-78
2021/01/18 01:35:20;;;;;;;22.27;7.30;;;;;;;-4.90;63.80;99342.56;4866626;29;20033;-79
2021/01/18 01:37:46;;;;;;;14.95;7.60;;;;;;;-4.92;63.28;99342.75;4875883;29;20088;-79
2021/01/18 01:40:13;;;;;;;22.47;7.90;;;;;;;-4.93;63.63;99345.50;4874981;29;20038;-79
2021/01/18 01:42:41;;;;;;;15.48;8.85;;;;;;;-4.94;63.44;99344.69;4844849;29;20049;-80
2021/01/18 01:45:13;;;;;;;19.77;9.60;;;;;;;-4.97;63.68;99352.03;4864468;29;20076;-79
2021/01/18 01:47:53;;;;;;;15.33;7.80;;;;;;;-4.99;63.49;99350.41;4878778;29;20057;-79
2021/01/18 01:50:26;;;;;;;15.37;7.87;;;;;;;-4.99;63.42;99347.81;4877505;29;20041;-78
2021/01/18 01:53:20;;;;;;;11.13;6.43;;;;;;;-5.00;63.58;99345.38;4877923;29;20033;-78
2021/01/18 01:55:45;;;;;;;15.03;9.03;;;;;;;-5.02;62.90;99347.31;4865988;29;20068;-79
2021/01/18 01:58:12;;;;;;;20.20;9.63;;;;;;;-5.04;62.91;99351.88;4877581;29;20537;-79
2021/01/18 02:00:39;;;;;;;25.97;9.37;;;;;;;-5.07;63.25;99353.03;4878459;29;20529;-79
2021/01/18 02:03:17;;;;;;;19.63;9.73;;;;;;;-5.08;63.11;99343.59;4865874;29;20048;-78
2021/01/18 02:05:49;;;;;;;17.80;9.48;;;;;;;-5.10;63.08;99347.34;4860532;29;20034;-81
2021/01/18 02:08:17;;;;;;;21.70;11.10;;;;;;;-5.11;63.07;99345.72;4860414;29;20526;-81
2021/01/18 02:10:43;;;;;;;25.48;11.45;;;;;;;-5.15;63.29;99346.06;4861167;29;20380;-78
2021/01/18 02:13:17;;;;;;;19.77;10.60;;;;;;;-5.18;63.28;99350.78;4858957;29;20045;-77
2021/01/18 02:16:29;;;;;;;25.27;11.00;;;;;;;-5.24;63.87;99354.84;4859457;29;20500;-77
2021/01/18 02:19:26;;;;;;;30.43;12.87;;;;;;;-5.32;63.75;99353.09;4863383;29;20107;-78
2021/01/18 02:22:13;;;;;;;21.73;10.03;;;;;;;-5.37;64.11;99354.56;4877943;29;20044;-77
2021/01/18 02:24:50;;;;;;;23.80;11.00;;;;;;;-5.43;63.54;99365.63;4877736;29;20517;-77
2021/01/18 02:27:22;;;;;;;26.33;10.90;;;;;;;-5.47;63.68;99365.16;4877708;29;20104;-77
2021/01/18 02:30:09;;;;;;;25.30;10.90;;;;;;;-5.53;62.64;99371.84;4877471;29;20450;-77
2021/01/18 02:33:05;;;;;;;19.37;9.00;;;;;;;-5.57;63.20;99367.91;4862262;29;20057;-77
2021/01/18 02:35:54;;;;;;;19.17;9.70;;;;;;;-5.60;63.36;99370.03;4877994;29;20037;-77
2021/01/18 02:38:29;;;;;;;23.60;11.13;;;;;;;-5.65;62.67;99375.72;4877383;29;20065;-77
2021/01/18 02:41:20;;;;;;;19.10;9.67;;;;;;;-5.68;63.00;99374.28;4878973;29;20070;-78
2021/01/18 02:54:01;;;;;;;19.00;9.77;;;;;;;-5.78;64.02;99373.63;4880505;29;20470;-78
2021/01/18 02:56:29;;;;;;;16.47;8.57;;;;;;;-5.79;63.99;99377.19;4877531;29;20589;-74
2021/01/18 02:58:58;;;;;;;15.32;8.32;;;;;;;-5.80;63.80;99375.56;4877743;29;20514;-75
2021/01/18 03:02:00;;;;;;;25.23;8.77;;;;;;;-5.81;63.66;99379.16;4875777;29;20037;-76
2021/01/18 03:04:40;;;;;;;19.30;9.87;;;;;;;-5.83;64.00;99381.91;4858049;29;20511;-76
2021/01/18 03:07:31;;;;;;;24.93;10.30;;;;;;;-5.82;63.45;99382.75;4859619;29;20077;-73
2021/01/18 03:10:12;;;;;;;19.77;9.73;;;;;;;-5.85;63.14;99381.25;4857783;29;20044;-74
2021/01/18 03:12:45;;;;;;;19.07;8.73;;;;;;;-5.85;63.61;99383.06;4859125;29;20033;-73
2021/01/18 03:15:13;;;;;;;24.13;9.97;;;;;;;-5.87;63.34;99382.41;4860798;29;20077;-73
2021/01/18 03:17:43;;;;;;;25.15;11.38;;;;;;;-5.90;63.30;99380.94;4875867;29;20512;-74
2021/01/18 03:20:09;;;;;;;23.47;10.20;;;;;;;-5.91;63.60;99384.50;4877188;29;20044;-73
2021/01/18 03:22:35;;;;;;;25.80;10.13;;;;;;;-5.89;64.06;99390.38;4877012;29;20403;-76
2021/01/18 03:25:05;;;;;;;20.13;10.33;;;;;;;-5.89;63.42;99386.97;4895980;29;20037;-76
2021/01/18 03:27:48;;;;;;;21.37;10.23;;;;;;;-5.89;63.47;99387.78;4897485;29;20192;-77
2021/01/18 03:30:14;;;;;;;23.63;11.70;;;;;;;-5.89;63.97;99390.38;4879845;29;20561;-76
2021/01/18 03:32:39;;;;;;;26.17;11.53;;;;;;;-5.91;63.86;99386.31;4871890;29;20082;-77
2021/01/18 03:35:05;;;;;;;25.43;11.57;;;;;;;-5.91;63.79;99388.91;4870340;29;20113;-78
2021/01/18 03:37:31;;;;;;;33.60;14.43;;;;;;;-5.93;63.63;99383.88;4868215;29;20032;-77
2021/01/18 03:39:56;;;;;;;35.03;15.97;;;;;;;-5.93;63.44;99389.09;4878962;29;20115;-78
2021/01/18 03:42:21;;;;;;;48.10;21.30;;;;;;;-5.93;64.02;99383.03;4880255;29;20036;-77
2021/01/18 03:44:47;;;;;;;49.37;21.03;;;;;;;-5.94;63.62;99384.84;4879385;29;20032;-77
2021/01/18 03:47:12;;;;;;;54.10;23.67;;;;;;;-6.00;63.52;99375.91;4878519;29;20031;-77
2021/01/18 03:49:38;;;;;;;45.07;23.53;;;;;;;-5.99;63.54;99385.34;4879002;29;20025;-76
2021/01/18 03:52:03;;;;;;;36.00;17.60;;;;;;;-6.00;63.47;99382.91;4879112;29;20040;-75
2021/01/18 03:54:28;;;;;;;24.73;15.13;;;;;;;-6.02;63.44;99377.84;4878990;29;20033;-75
2021/01/18 03:56:54;;;;;;;22.07;11.57;;;;;;;-6.03;63.81;99385.81;4879112;29;20494;-75
2021/01/18 03:59:19;;;;;;;23.70;11.13;;;;;;;-6.02;63.95;99387.47;4878829;29;20035;-76
2021/01/18 04:01:45;;;;;;;26.00;9.87;;;;;;;-6.05;64.14;99388.59;4869696;29;20029;-75
2021/01/18 04:04:10;;;;;;;21.43;10.17;;;;;;;-6.05;63.62;99396.41;4860241;29;20033;-75
2021/01/18 04:06:37;;;;;;;25.23;12.33;;;;;;;-6.05;63.41;99396.41;4860439;29;20399;-76
2021/01/18 04:09:04;;;;;;;23.63;13.70;;;;;;;-6.11;63.27;99395.25;4860421;29;20127;-74
2021/01/18 04:11:30;;;;;;;26.87;12.90;;;;;;;-6.09;64.15;99405.53;4880516;29;20429;-76
2021/01/18 04:13:55;;;;;;;27.67;13.43;;;;;;;-6.14;63.54;99399.94;4878939;29;20410;-75
2021/01/18 04:16:21;;;;;;;34.70;14.97;;;;;;;-6.13;64.03;99407.63;4895364;29;20053;-76
2021/01/18 04:18:46;;;;;;;30.93;15.17;;;;;;;-6.16;63.95;99413.13;4895356;29;20033;-76
2021/01/18 04:21:15;;;;;;;39.10;15.30;;;;;;;-6.17;63.97;99426.31;4882046;29;20064;-76
2021/01/18 04:23:41;;;;;;;36.43;15.77;;;;;;;-6.21;63.55;99424.97;4882168;29;20032;-76
2021/01/18 04:26:06;;;;;;;28.73;15.00;;;;;;;-6.24;63.57;99425.31;4882106;29;20060;-77
2021/01/18 04:28:32;;;;;;;27.37;13.80;;;;;;;-6.26;64.14;99425.47;4882082;29;20039;-75
2021/01/18 04:30:57;;;;;;;33.90;15.57;;;;;;;-6.25;63.87;99423.69;4882270;29;20036;-74
2021/01/18 04:33:25;;;;;;;26.73;14.73;;;;;;;-6.24;64.26;99433.94;4898533;29;20112;-74
2021/01/18 04:35:54;;;;;;;34.42;13.82;;;;;;;-6.25;64.38;99434.91;4884655;29;20025;-74
2021/01/18 04:38:19;;;;;;;27.23;15.02;;;;;;;-6.23;64.01;99442.56;4878971;29;20049;-74
2021/01/18 04:40:44;;;;;;;36.13;16.13;;;;;;;-6.29;63.96;99428.38;4871316;29;20505;-75
2021/01/18 04:43:13;;;;;;;31.13;15.37;;;;;;;-6.27;63.82;99436.84;4882093;29;20024;-75
2021/01/18 04:45:39;;;;;;;;;;;;;;;-6.26;64.52;99438.50;4899526;29;20028;-75
2021/01/18 04:48:04;;;;;;;32.73;14.20;;;;;;;-6.27;64.22;99442.88;4898538;29;19919;-76
2021/01/18 04:50:30;;;;;;;33.50;14.90;;;;;;;-6.27;64.17;99448.06;4881391;29;20115;-75
2021/01/18 04:53:00;;;;;;;32.97;14.00;;;;;;;-6.29;63.87;99446.59;4882001;29;20025;-76
2021/01/18 04:55:29;;;;;;;23.17;13.67;;;;;;;-6.29;63.46;99460.41;4881470;29;20135;-74
2021/01/18 04:58:15;;;;;;;27.83;14.03;;;;;;;-6.30;64.18;99458.81;4882012;29;20372;-76
2021/01/18 05:00:55;;;;;;;32.60;13.60;;;;;;;-6.33;64.12;99451.31;4881364;29;20060;-78
2021/01/18 05:03:22;;;;;;;44.43;18.00;;;;;;;-6.36;64.03;99449.03;4881349;29;20510;-76
2021/01/18 05:06:05;;;;;;;59.10;20.87;;;;;;;-6.35;63.58;99461.03;4881733;29;20418;-78
2021/01/18 05:08:40;;;;;;;57.67;20.30;;;;;;;-6.36;63.60;99464.66;4881593;29;20056;-79
2021/01/18 05:11:05;;;;;;;48.23;18.20;;;;;;;-6.40;63.87;99463.31;4881534;29;20029;-78
2021/01/18 05:13:31;;;;;;;60.50;20.07;;;;;;;-6.44;64.12;99456.78;4894224;29;20025;-76
2021/01/18 05:16:00;;;;;;;36.10;15.53;;;;;;;-6.48;64.35;99458.06;4879787;29;20033;-76
2021/01/18 05:18:33;;;;;;;44.70;17.35;;;;;;;-6.47;64.21;99475.31;4880970;29;20037;-75
2021/01/18 05:21:03;;;;;;;36.13;16.50;;;;;;;-6.51;63.76;99474.00;4868424;29;20487;-75
2021/01/18 05:23:29;;;;;;;47.33;22.30;;;;;;;-6.53;64.63;99471.56;4862474;29;20411;-75
2021/01/18 05:26:17;;;;;;;47.00;20.40;;;;;;;-6.55;63.69;99468.28;4863011;29;20029;-75
2021/01/18 05:28:44;;;;;;;40.47;19.15;;;;;;;-6.57;64.37;99466.81;4862924;29;20037;-77
2021/01/18 05:40:34;;;;;;;44.90;21.20;;;;;;;-6.62;64.96;99483.69;5025528;23;20127;-79
2021/01/18 05:43:02;;;;;;;52.27;23.20;;;;;;;-6.63;64.78;99484.66;4893920;29;20044;-78
2021/01/18 05:45:28;;;;;;;50.97;23.00;;;;;;;-6.63;64.42;99471.66;4880164;29;20028;-79
2021/01/18 05:47:54;;;;;;;50.60;22.50;;;;;;;-6.62;64.10;99475.88;4880564;29;20035;-79
2021/01/18 05:50:24;;;;;;;54.67;23.53;;;;;;;-6.62;64.48;99473.28;4880421;29;20029;-79
2021/01/18 05:52:50;;;;;;;58.37;22.63;;;;;;;-6.58;64.43;99478.97;4880666;29;20078;-79
2021/01/18 05:55:31;;;;;;;49.43;22.50;;;;;;;-6.56;64.42;99482.25;4881230;29;20032;-79
2021/01/18 05:58:06;;;;;;;60.43;24.43;;;;;;;-6.52;64.46;99482.75;4881076;29;20577;-79
2021/01/18 06:00:36;;;;;;;63.60;26.07;;;;;;;-6.47;64.03;99475.31;4880776;29;20435;-79
2021/01/18 06:03:10;;;;;;;72.07;30.67;;;;;;;-6.44;64.08;99470.59;4880826;29;20024;-79
2021/01/18 06:05:40;;;;;;;89.47;37.13;;;;;;;-6.38;64.51;99481.38;4880680;29;20039;-79
2021/01/18 06:08:12;;;;;;;76.53;32.93;;;;;;;-6.31;64.22;99487.56;4880828;29;20447;-79
2021/01/18 06:10:38;;;;;;;81.47;32.30;;;;;;;-6.23;64.07;99484.22;4880624;29;20494;-79
2021/01/18 06:13:29;;;;;;;73.13;31.80;;;;;;;-6.12;63.88;99495.16;4880864;29;20088;-79
2021/01/18 06:16:06;;;;;;;110.63;40.03;;;;;;;-6.01;63.72;99498.47;4880811;29;20043;-79
2021/01/18 06:18:33;;;;;;;119.70;40.33;;;;;;;-5.97;63.78;99495.34;4880501;29;20379;-79
2021/01/18 06:21:01;;;;;;;109.50;40.37;;;;;;;-5.86;64.09;99504.69;4880763;29;20036;-79
2021/01/18 06:23:27;;;;;;;128.73;47.03;;;;;;;-5.75;63.19;99507.97;4880629;29;20024;-80
2021/01/18 06:25:55;;;;;;;102.73;42.67;;;;;;;-5.68;63.45;99511.56;4880595;29;20029;-79
2021/01/18 06:28:30;;;;;;;97.85;36.83;;;;;;;-5.57;63.48;99515.66;4880834;29;20107;-80
2021/01/18 06:30:59;;;;;;;86.47;34.90;;;;;;;-5.47;63.08;99511.09;4880712;29;20698;-80
2021/01/18 06:33:48;;;;;;;90.23;32.47;;;;;;;-5.34;63.41;99513.25;4880918;29;20033;-80
2021/01/18 06:36:21;;;;;;;68.63;27.67;;;;;;;-5.21;63.13;99515.38;4881333;29;20072;-80
2021/01/18 06:39:01;;;;;;;82.07;32.07;;;;;;;-5.10;63.04;99522.91;4881671;29;20062;-80
2021/01/18 06:41:38;;;;;;;174.50;68.47;;;;;;;-4.96;62.57;99524.03;4880650;29;20123;-80
2021/01/18 06:44:05;;;;;;;156.37;62.87;;;;;;;-4.84;62.85;99524.53;4881003;29;20509;-80
2021/01/18 06:46:33;;;;;;;142.87;57.07;;;;;;;-4.72;62.07;99522.41;4880668;29;20028;-80
2021/01/18 06:48:58;;;;;;;109.57;48.22;;;;;;;-4.60;61.93;99515.88;4881376;29;20032;-80
2021/01/18 06:51:26;;;;;;;102.63;38.93;;;;;;;-4.49;62.08;99514.72;4881589;29;20043;-81
2021/01/18 06:53:54;;;;;;;58.15;23.15;;;;;;;-4.40;61.62;99516.31;4885227;29;20127;-80
2021/01/18 06:56:23;;;;;;;25.83;12.18;;;;;;;-4.22;61.37;99523.13;4886352;29;20032;-81
2021/01/18 06:58:51;;;;;;;34.13;15.90;;;;;;;-4.20;60.46;99521.97;4883484;29;20029;-81
2021/01/18 07:01:29;;;;;;;30.15;15.30;;;;;;;-4.13;60.72;99529.94;4883819;29;20043;-81
2021/01/18 07:04:12;;;;;;;33.92;14.27;;;;;;;-3.99;60.81;99527.63;4885679;29;20462;-81
2021/01/18 07:06:39;;;;;;;40.53;16.27;;;;;;;-3.89;60.76;99530.84;4884402;29;20036;-81
2021/01/18 07:09:12;;;;;;;47.80;16.63;;;;;;;-3.81;60.92;99527.38;4885912;29;20041;-81
2021/01/18 07:11:38;;;;;;;43.60;17.90;;;;;;;-3.74;60.58;99533.56;4885360;29;20040;-81
2021/01/18 07:14:09;;;;;;;44.77;18.10;;;;;;;-3.66;60.71;99532.69;4890211;29;20044;-81
2021/01/18 07:16:35;;;;;;;40.87;21.57;;;;;;;-3.54;60.53;99533.94;4886909;29;20059;-81
2021/01/18 07:19:03;;;;;;;43.63;19.33;;;;;;;-3.42;60.45;99537.00;4889112;29;20032;-81
2021/01/18 07:21:33;;;;;;;56.60;23.95;;;;;;;-3.36;59.57;99543.34;4888761;29;20043;-82
2021/01/18 07:24:01;;;;;;;58.17;25.87;;;;;;;-3.31;59.94;99536.56;4891431;29;20064;-81
2021/01/18 07:26:30;;;;;;;;;;;;;;;-3.25;59.39;99546.38;4891350;29;20446;-82
2021/01/18 07:29:07;;;;;;;65.75;24.42;;;;;;;-3.15;59.39;99545.31;4893001;29;19919;-82
2021/01/18 07:31:37;;;;;;;60.07;27.10;;;;;;;-3.05;58.84;99548.53;4890356;29;20040;-82
2021/01/18 07:34:03;;;;;;;71.50;30.67;;;;;;;-2.98;58.92;99561.72;4892825;29;20040;-82
2021/01/18 07:36:31;;;;;;;66.43;25.73;;;;;;;-2.91;58.68;99560.03;4893924;29;20036;-81
2021/01/18 07:38:57;;;;;;;35.17;16.10;;;;;;;-2.81;58.94;99565.03;4892890;29;20072;-82
2021/01/18 07:41:34;;;;;;;18.47;9.67;;;;;;;-2.71;57.94;99562.16;4892938;29;20040;-82
2021/01/18 07:43:59;;;;;;;19.33;9.53;;;;;;;-2.62;57.89;99558.50;4891362;29;20037;-82
2021/01/18 07:46:24;;;;;;;21.57;10.17;;;;;;;-2.52;57.57;99563.50;4893358;29;20029;-82
2021/01/18 07:48:57;;;;;;;23.43;10.47;;;;;;;-2.42;57.67;99554.38;4892178;29;20144;-82
2021/01/18 07:51:24;;;;;;;19.13;9.30;;;;;;;-2.30;56.58;99556.56;4894611;29;20032;-82
2021/01/18 07:53:50;;;;;;;21.17;9.87;;;;;;;-2.24;56.63;99563.72;4895157;29;20059;-82
2021/01/18 07:56:31;;;;;;;18.97;9.83;;;;;;;-2.16;56.38;99561.00;4897590;29;20049;-82
2021/01/18 07:59:02;;;;;;;20.37;8.87;;;;;;;-2.11;56.96;99561.28;4896573;29;20056;-81
2021/01/18 08:01:29;;;;;;;19.80;9.83;;;;;;;-2.06;55.71;99552.88;4892894;29;20041;-82
2021/01/18 08:04:17;;;;;;;18.77;8.60;;;;;;;-2.02;56.04;99558.56;4893251;29;20044;-81
2021/01/18 08:07:07;;;;;;;17.05;8.02;;;;;;;-1.95;55.47;99562.09;4897796;29;20128;-82
2021/01/18 08:09:33;;;;;;;18.53;8.67;;;;;;;-1.93;55.12;99554.84;4887332;29;20054;-82
2021/01/18 08:12:31;;;;;;;13.53;7.37;;;;;;;-1.85;54.59;99553.97;4902572;29;20029;-82
2021/01/18 08:15:04;;;;;;;16.67;7.55;;;;;;;-1.81;53.02;99553.41;4907593;29;20061;-81
2021/01/18 08:17:29;;;;;;;20.33;9.50;;;;;;;-1.77;53.38;99567.78;4907942;29;20037;-82
2021/01/18 08:20:16;;;;;;;18.03;7.33;;;;;;;-1.69;53.36;99563.44;4907185;29;20437;-81
2021/01/18 08:22:42;;;;;;;16.30;7.40;;;;;;;-1.62;53.19;99567.75;4888901;29;20037;-81
2021/01/18 08:25:09;;;;;;;13.17;6.83;;;;;;;-1.55;53.53;99574.88;4887536;29;20153;-81
2021/01/18 08:27:58;;;;;;;16.97;7.77;;;;;;;-1.50;53.05;99575.13;4890626;29;20039;-81
2021/01/18 08:30:34;;;;;;;16.85;8.00;;;;;;;-1.55;52.18;99567.84;4875429;29;20045;-80
2021/01/18 08:33:06;;;;;;;19.77;7.25;;;;;;;-1.53;51.93;99575.53;4886487;29;20064;-80
2021/01/18 08:35:34;;;;;;;18.60;7.87;;;;;;;-1.55;52.63;99572.25;4886473;29;20092;-81
2021/01/18 08:38:02;;;;;;;16.73;8.98;;;;;;;-1.53;52.42;99567.66;4885183;29;20510;-81
2021/01/18 08:40:46;;;;;;;14.93;7.32;;;;;;;-1.51;52.22;99576.97;4889056;29;20053;-81
2021/01/18 08:43:13;;;;;;;13.90;7.73;;;;;;;-1.54;52.54;99577.31;4891029;29;20127;-82
2021/01/18 08:45:43;;;;;;;18.67;9.13;;;;;;;-1.49;52.97;99576.78;4888513;29;20066;-81
2021/01/18 08:48:11;;;;;;;18.67;7.90;;;;;;;-1.45;52.11;99572.81;4889912;29;20028;-81
2021/01/18 08:50:40;;;;;;;15.07;7.53;;;;;;;-1.41;52.38;99570.63;4886907;29;20033;-81
2021/01/18 08:53:26;;;;;;;14.60;6.80;;;;;;;-1.36;51.59;99576.94;4889372;29;20047;-81
2021/01/18 08:55:56;;;;;;;16.63;7.47;;;;;;;-1.33;51.35;99566.06;4891902;29;20033;-81
2021/01/18 08:58:35;;;;;;;15.87;7.90;;;;;;;-1.30;51.03;99563.06;4888407;29;20028;-81
2021/01/18 09:01:01;;;;;;;13.97;8.63;;;;;;;-1.29;50.36;99562.06;4889756;29;20029;-81
2021/01/18 09:03:28;;;;;;;12.30;7.28;;;;;;;-1.26;50.91;99563.50;4886390;29;20039;-81
2021/01/18 09:05:55;;;;;;;14.60;8.03;;;;;;;-1.26;50.47;99560.88;4889420;29;20255;-80
2021/01/18 09:08:22;;;;;;;13.75;7.55;;;;;;;-1.22;50.52;99562.16;4887534;29;20051;-81
2021/01/18 09:10:58;;;;;;;13.70;7.70;;;;;;;-1.26;50.96;99555.63;4889618;29;20021;-81
2021/01/18 09:13:26;;;;;;;13.63;6.63;;;;;;;-1.22;50.12;99558.69;4893025;29;20033;-81
2021/01/18 09:15:53;;;;;;;16.05;7.93;;;;;;;-1.22;50.08;99558.69;4893223;29;20056;-81
2021/01/18 09:18:22;;;;;;;16.13;8.30;;;;;;;-1.18;50.17;99552.91;4886409;29;20032;-81
2021/01/18 09:20:48;;;;;;;14.23;8.10;;;;;;;-1.13;49.91;99553.16;4892507;29;20124;-81
2021/01/18 09:23:16;;;;;;;15.57;7.97;;;;;;;-1.08;49.82;99547.34;4891456;29;20147;-81
2021/01/18 09:25:41;;;;;;;14.30;7.40;;;;;;;-1.03;50.06;99549.41;4889565;29;20032;-81
2021/01/18 09:28:15;;;;;;;16.47;8.33;;;;;;;-0.98;50.06;99541.78;4889960;29;20090;-81
2021/01/18 09:30:43;;;;;;;12.43;6.97;;;;;;;-1.01;49.40;99532.47;4885306;29;20111;-80
2021/01/18 09:33:12;;;;;;;17.20;8.65;;;;;;;-0.94;49.72;99535.16;4883645;29;20032;-81
2021/01/18 09:35:40;;;;;;;15.73;7.83;;;;;;;-0.88;49.14;99544.09;4884124;29;20068;-81
2021/01/18 09:38:08;;;;;;;17.67;6.93;;;;;;;-0.83;48.93;99536.44;4886061;29;20032;-81
2021/01/18 09:40:35;;;;;;;17.23;7.95;;;;;;;-0.75;48.90;99533.69;4885525;29;20250;-81
2021/01/18 09:43:01;;;;;;;18.20;9.63;;;;;;;-0.69;49.04;99532.94;4887749;29;20033;-81
2021/01/18 09:45:27;;;;;;;15.45;8.25;;;;;;;-0.62;48.70;99532.16;4889630;29;20031;-81
2021/01/18 09:48:13;;;;;;;16.30;7.15;;;;;;;-0.58;47.11;99525.56;4888981;29;20032;-81
2021/01/18 09:50:38;;;;;;;13.82;7.25;;;;;;;-0.59;47.15;99526.56;4890041;29;20100;-81
2021/01/18 09:53:06;;;;;;;16.20;7.70;;;;;;;-0.54;46.42;99524.97;4885427;29;20092;-80
2021/01/18 09:55:46;;;;;;;16.42;7.50;;;;;;;-0.51;46.41;99516.69;4887331;29;20029;-81
2021/01/18 09:58:42;;;;;;;13.93;7.33;;;;;;;-0.44;46.20;99518.56;4890856;29;20129;-81
2021/01/18 10:01:11;;;;;;;17.75;6.68;;;;;;;-0.40;46.56;99515.38;4893250;29;20395;-81
2021/01/18 10:03:38;;;;;;;18.48;7.40;;;;;;;-0.37;46.16;99506.28;4892275;29;20067;-82
2021/01/18 10:06:13;;;;;;;9.93;6.72;;;;;;;-0.36;46.12;99507.91;4893093;29;20036;-80
2021/01/18 10:08:41;;;;;;;18.73;8.68;;;;;;;-0.34;46.24;99493.56;4892698;29;20073;-81
2021/01/18 10:11:07;;;;;;;14.30;6.72;;;;;;;-0.28;46.09;99493.78;4886447;29;20037;-81
2021/01/18 10:13:32;;;;;;;19.00;8.02;;;;;;;-0.22;46.34;99490.38;4891705;29;20110;-82
2021/01/18 10:16:12;;;;;;;16.45;7.72;;;;;;;-0.20;45.27;99489.19;4889530;29;20100;-82
2021/01/18 10:18:47;;;;;;;14.95;6.45;;;;;;;-0.15;44.84;99488.59;4888558;29;20025;-82
2021/01/18 10:21:12;;;;;;;13.20;7.45;;;;;;;-0.14;45.18;99471.81;4888289;29;20037;-81
2021/01/18 10:23:40;;;;;;;23.58;7.35;;;;;;;-0.11;44.73;99479.34;4888822;29;20120;-81
2021/01/18 10:26:24;;;;;;;20.30;7.43;;;;;;;-0.12;44.20;99466.38;4891408;29;20041;-82
2021/01/18 10:28:54;;;;;;;18.05;10.00;;;;;;;-0.09;45.26;99456.28;4890958;29;20542;-81
2021/01/18 10:31:25;;;;;;;13.00;6.57;;;;;;;-0.07;44.43;99448.22;4895668;29;20168;-82
2021/01/18 10:34:27;;;;;;;18.65;9.50;;;;;;;-0.10;44.16;99441.50;4892558;29;20032;-81
2021/01/18 10:36:54;;;;;;;14.40;8.27;;;;;;;-0.05;44.51;99444.38;4791747;29;20109;-81
2021/01/18 10:39:27;;;;;;;13.55;7.25;;;;;;;-0.03;44.86;99434.44;4867448;29;20056;-80
2021/01/18 10:42:00;;;;;;;19.33;8.85;;;;;;;0.04;45.00;99436.28;4885442;29;20450;-81
2021/01/18 10:44:25;;;;;;;17.00;8.05;;;;;;;0.03;44.92;99427.59;4883421;29;20040;-81
2021/01/18 10:46:51;;;;;;;13.73;8.10;;;;;;;0.10;45.41;99435.53;4882519;29;20462;-80
2021/01/18 10:49:27;;;;;;;15.23;8.20;;;;;;;0.12;44.65;99422.97;4883940;29;20036;-81
2021/01/18 10:51:59;;;;;;;19.98;8.35;;;;;;;0.13;44.72;99411.44;4884775;29;20032;-80
2021/01/18 10:54:25;;;;;;;13.38;8.10;;;;;;;0.22;44.86;99412.06;4885463;29;20092;-81
2021/01/18 10:56:50;;;;;;;18.83;10.07;;;;;;;0.24;44.22;99416.13;4884766;29;20056;-81
2021/01/18 10:59:16;;;;;;;19.27;8.85;;;;;;;0.29;44.63;99407.63;4884187;29;20072;-80
2021/01/18 11:02:07;;;;;;;16.67;7.32;;;;;;;0.36;44.21;99408.47;4885089;29;20028;-80
2021/01/18 11:04:35;;;;;;;17.90;7.68;;;;;;;0.32;44.29;99407.25;4885663;29;20142;-80
2021/01/18 11:07:01;;;;;;;14.95;8.68;;;;;;;0.39;44.63;99408.06;4881504;29;20060;-80
2021/01/18 11:09:33;;;;;;;13.82;7.53;;;;;;;0.42;43.58;99409.50;4883527;29;20036;-81
2021/01/18 11:12:00;;;;;;;13.68;8.23;;;;;;;0.46;44.06;99403.63;4881875;29;20028;-81
2021/01/18 11:14:27;;;;;;;20.10;8.77;;;;;;;0.48;43.82;99401.59;4881523;29;20029;-80
2021/01/18 11:16:59;;;;;;;14.57;9.07;;;;;;;0.54;43.54;99405.25;4883813;29;20063;-80
2021/01/18 11:19:25;;;;;;;14.23;7.40;;;;;;;0.56;42.91;99395.34;4888758;29;20119;-82
2021/01/18 11:21:51;;;;;;;16.40;8.57;;;;;;;0.58;42.37;99397.75;4886308;29;20052;-80
2021/01/18 11:24:16;;;;;;;15.48;8.50;;;;;;;0.62;43.61;99393.72;4883771;29;20028;-80
2021/01/18 11:26:42;;;;;;;14.07;7.63;;;;;;;0.67;43.70;99388.63;4882445;29;20037;-81
2021/01/18 11:29:07;;;;;;;15.27;8.70;;;;;;;0.74;43.74;99388.66;4882659;29;20027;-80
2021/01/18 11:31:33;;;;;;;15.57;7.43;;;;;;;0.77;43.96;99394.31;4882207;29;20044;-80
2021/01/18 11:33:58;;;;;;;14.32;8.77;;;;;;;0.81;42.96;99389.47;4883439;29;20239;-81
2021/01/18 11:36:25;;;;;;;19.23;8.88;;;;;;;0.85;43.01;99389.88;4883974;29;20039;-81
2021/01/18 11:38:51;;;;;;;15.02;7.82;;;;;;;0.83;42.65;99384.81;4883898;29;20083;-81
2021/01/18 11:41:17;;;;;;;14.75;7.13;;;;;;;0.85;42.99;99385.41;4884473;29;20033;-80
2021/01/18 11:43:42;;;;;;;16.23;7.80;;;;;;;0.86;42.40;99387.03;4884271;29;20043;-81
2021/01/18 11:46:08;;;;;;;10.50;7.28;;;;;;;0.91;42.66;99379.31;4883576;29;20028;-80
2021/01/18 11:48:33;;;;;;;12.07;7.50;;;;;;;0.93;41.69;99385.19;4884936;29;20071;-81
2021/01/18 11:50:58;;;;;;;13.43;6.55;;;;;;;0.98;41.17;99379.31;4884121;29;20132;-81
2021/01/18 11:53:24;;;;;;;14.73;6.07;;;;;;;1.03;40.41;99384.78;4883896;29;20060;-81
2021/01/18 11:55:53;;;;;;;12.95;6.80;;;;;;;1.07;39.45;99380.72;4885718;29;20032;-81
2021/01/18 11:58:18;;;;;;;;;;;;;;;1.10;39.13;99377.69;4885105;29;20036;-81
2021/01/18 12:00:43;;;;;;;10.13;5.10;;;;;;;1.15;39.39;99377.06;4882269;29;20387;-80
2021/01/18 12:03:09;;;;;;;7.28;4.85;;;;;;;1.17;38.94;99368.94;4882813;29;20626;-81
2021/01/18 12:05:35;;;;;;;12.45;5.38;;;;;;;1.20;39.15;99368.56;4885452;29;20127;-81
2021/01/18 12:08:02;;;;;;;11.52;5.18;;;;;;;1.24;39.06;99372.38;4886114;29;20043;-81